Time;durP1;ratioP1;P1;durP2;ratioP2;P2;SDS_P1;SDS_P2;PMS_P1;PMS_P2;Temp;Humidity;BMP_temperature;BMP_pressure;BME280_temperature;BME280_humidity;BME280_pressure;Samples;Min_cycle;Max_cycle;Signal;HPM_P1;HPM_P2
2021/03/26 00:00:33;;;;;;;10.00;2.65;;;7.60;99.90;;;;;;5044991;28;20042;-65
2021/03/26 00:02:59;;;;;;;7.53;1.35;;;7.50;99.90;;;;;;5043617;28;20405;-65
2021/03/26 00:05:25;;;;;;;6.78;2.00;;;7.50;99.90;;;;;;5041225;28;20033;-65
2021/03/26 00:07:51;;;;;;;11.30;2.30;;;7.50;99.90;;;;;;5042900;28;20042;-65
2021/03/26 00:10:17;;;;;;;8.05;1.58;;;7.50;99.90;;;;;;5041050;28;20060;-65
2021/03/26 00:12:43;;;;;;;5.40;1.75;;;7.50;99.90;;;;;;5043208;28;20544;-65
2021/03/26 00:15:10;;;;;;;7.97;1.73;;;7.50;99.90;;;;;;5038869;28;20036;-67
2021/03/26 00:17:36;;;;;;;7.85;1.63;;;7.50;99.90;;;;;;5036481;28;20040;-66
2021/03/26 00:20:03;;;;;;;6.38;1.92;;;7.50;99.90;;;;;;5041802;28;20033;-65
2021/03/26 00:22:28;;;;;;;7.93;1.77;;;7.50;99.90;;;;;;5044334;28;20037;-64
2021/03/26 00:24:54;;;;;;;11.40;2.58;;;7.50;99.90;;;;;;5042881;28;20121;-65
2021/03/26 00:27:19;;;;;;;10.45;2.35;;;7.50;99.90;;;;;;5039864;28;20108;-65
2021/03/26 00:29:45;;;;;;;4.97;1.70;;;7.50;99.90;;;;;;5040066;28;20119;-65
2021/03/26 00:32:11;;;;;;;8.60;1.77;;;7.50;99.90;;;;;;5041857;28;20041;-65
2021/03/26 00:34:37;;;;;;;8.57;3.25;;;7.60;99.90;;;;;;5039316;28;20026;-65
2021/03/26 00:37:03;;;;;;;9.73;3.13;;;7.60;99.90;;;;;;5042874;28;20030;-65
2021/03/26 00:39:29;;;;;;;7.00;2.85;;;7.50;99.90;;;;;;5041082;28;20626;-65
2021/03/26 00:41:54;;;;;;;9.65;3.15;;;7.50;99.90;;;;;;5040368;28;20121;-65
2021/03/26 00:44:20;;;;;;;8.15;2.38;;;7.40;99.90;;;;;;5041643;28;20064;-65
2021/03/26 00:46:46;;;;;;;9.82;3.28;;;7.30;99.90;;;;;;5041597;28;20036;-65
2021/03/26 00:49:12;;;;;;;15.25;2.47;;;7.30;99.90;;;;;;5041762;28;20032;-65
2021/03/26 00:51:39;;;;;;;8.90;2.75;;;7.20;99.90;;;;;;5040528;28;20026;-65
2021/03/26 00:54:06;;;;;;;11.15;3.10;;;7.10;99.90;;;;;;5042439;28;20485;-64
2021/03/26 00:56:31;;;;;;;12.88;2.53;;;7.10;99.90;;;;;;5039039;28;20033;-65
2021/03/26 00:58:57;;;;;;;12.15;3.40;;;7.00;99.90;;;;;;5039421;28;20088;-65
2021/03/26 01:01:23;;;;;;;9.55;2.95;;;7.00;99.90;;;;;;5043754;28;20040;-64
2021/03/26 01:03:48;;;;;;;8.10;3.03;;;7.00;99.90;;;;;;5040665;28;20036;-65
2021/03/26 01:06:16;;;;;;;7.20;2.88;;;7.00;99.90;;;;;;5038766;28;20034;-65
2021/03/26 01:08:41;;;;;;;15.00;3.22;;;7.00;99.90;;;;;;5041109;28;20596;-64
2021/03/26 01:11:20;;;;;;;9.68;2.88;;;7.00;99.90;;;;;;5037661;28;20116;-65
2021/03/26 01:13:46;;;;;;;9.38;3.55;;;7.00;99.90;;;;;;5040710;28;20060;-65
2021/03/26 01:16:14;;;;;;;11.10;2.88;;;6.90;99.90;;;;;;5037181;28;20048;-65
2021/03/26 01:18:43;;;;;;;8.85;3.20;;;6.90;99.90;;;;;;5038801;28;20034;-65
2021/03/26 01:21:12;;;;;;;7.22;2.88;;;6.90;99.90;;;;;;5036502;28;20034;-64
2021/03/26 01:23:40;;;;;;;9.15;3.67;;;6.90;99.90;;;;;;5041333;28;20079;-65
2021/03/26 01:26:05;;;;;;;10.52;3.65;;;6.90;99.90;;;;;;5038524;28;20457;-65
2021/03/26 01:28:31;;;;;;;12.85;4.03;;;6.80;99.90;;;;;;5041545;28;20071;-65
2021/03/26 01:30:57;;;;;;;8.00;3.35;;;6.80;99.90;;;;;;5038888;28;20067;-66
2021/03/26 01:33:24;;;;;;;8.90;3.70;;;6.90;99.90;;;;;;5040981;28;20398;-65
2021/03/26 01:35:50;;;;;;;10.50;3.55;;;6.80;99.90;;;;;;5039464;28;20033;-65
2021/03/26 01:38:17;;;;;;;10.57;3.55;;;6.90;99.90;;;;;;5040038;28;20107;-65
2021/03/26 01:40:50;;;;;;;8.65;3.42;;;6.80;99.90;;;;;;5041514;28;20033;-65
2021/03/26 01:43:26;;;;;;;13.30;4.15;;;6.80;99.90;;;;;;5037891;28;20088;-65
2021/03/26 01:45:52;;;;;;;7.72;3.28;;;6.80;99.90;;;;;;5035876;28;20037;-65
2021/03/26 01:48:49;;;;;;;17.23;4.30;;;6.70;99.90;;;;;;5039958;28;20039;-65
2021/03/26 01:51:18;;;;;;;18.17;4.20;;;6.70;99.90;;;;;;5037393;28;20397;-66
2021/03/26 01:53:44;;;;;;;11.80;4.63;;;6.80;99.90;;;;;;5047941;28;20051;-66
2021/03/26 01:56:10;;;;;;;9.73;4.13;;;6.70;99.90;;;;;;5046728;28;20034;-69
2021/03/26 01:58:37;;;;;;;10.65;5.00;;;6.70;99.90;;;;;;5057989;28;20037;-66
2021/03/26 02:01:10;;;;;;;8.20;3.58;;;6.60;99.90;;;;;;5043942;28;20060;-65
2021/03/26 02:03:46;;;;;;;13.43;4.75;;;6.60;99.90;;;;;;5035191;28;20116;-65
2021/03/26 02:06:19;;;;;;;8.32;3.72;;;6.60;99.90;;;;;;5040183;28;20048;-65
2021/03/26 02:08:45;;;;;;;11.55;4.03;;;6.60;99.90;;;;;;5036744;28;20037;-65
2021/03/26 02:11:23;;;;;;;14.00;4.05;;;6.60;99.90;;;;;;5039603;28;20621;-65
2021/03/26 02:13:50;;;;;;;12.55;3.85;;;6.60;99.90;;;;;;5039085;28;20032;-65
2021/03/26 02:16:17;;;;;;;10.10;3.90;;;6.70;99.90;;;;;;5039465;28;20144;-65
2021/03/26 02:18:43;;;;;;;8.65;4.50;;;6.70;99.90;;;;;;5043783;28;20055;-65
2021/03/26 02:21:24;;;;;;;13.40;3.83;;;6.70;99.90;;;;;;5051970;28;20025;-65
2021/03/26 02:23:52;;;;;;;12.40;4.10;;;6.80;99.90;;;;;;5047970;28;20063;-66
2021/03/26 02:26:29;;;;;;;10.85;4.45;;;6.90;99.90;;;;;;5050357;28;20504;-65
2021/03/26 02:28:55;;;;;;;14.10;4.32;;;7.00;99.90;;;;;;5045177;28;20057;-65
2021/03/26 02:31:20;;;;;;;12.73;4.18;;;7.00;99.90;;;;;;5039960;28;20179;-65
2021/03/26 02:33:47;;;;;;;11.52;3.95;;;7.00;99.90;;;;;;5044175;28;20085;-65
2021/03/26 02:36:13;;;;;;;11.60;3.60;;;7.00;99.90;;;;;;5039579;28;20037;-65
2021/03/26 02:38:46;;;;;;;9.98;3.88;;;7.10;99.90;;;;;;5037922;28;20045;-65
2021/03/26 02:41:18;;;;;;;12.90;4.65;;;7.10;99.90;;;;;;5036563;28;20080;-64
2021/03/26 02:43:59;;;;;;;14.18;4.32;;;7.10;99.90;;;;;;5036930;28;20056;-65
2021/03/26 02:46:40;;;;;;;8.73;4.03;;;7.20;99.90;;;;;;5036172;28;20044;-65
2021/03/26 02:49:18;;;;;;;14.52;4.78;;;7.20;99.90;;;;;;5037344;28;20103;-65
2021/03/26 02:52:02;;;;;;;11.30;4.82;;;7.20;99.90;;;;;;5038667;28;20068;-65
2021/03/26 02:54:34;;;;;;;11.07;4.40;;;7.20;99.90;;;;;;5037792;28;20497;-65
2021/03/26 02:57:15;;;;;;;12.85;5.07;;;7.20;99.90;;;;;;5033653;28;20037;-65
2021/03/26 02:59:46;;;;;;;17.95;6.10;;;7.20;99.90;;;;;;5035566;28;20116;-65
2021/03/26 03:02:15;;;;;;;12.82;6.20;;;7.20;99.90;;;;;;5038677;28;20033;-65
2021/03/26 03:04:48;;;;;;;17.85;6.43;;;7.10;99.90;;;;;;5037450;28;20050;-64
2021/03/26 03:07:22;;;;;;;11.88;6.18;;;7.10;99.90;;;;;;5036815;28;20037;-65
2021/03/26 03:09:52;;;;;;;16.20;7.00;;;7.10;99.90;;;;;;5039791;28;20026;-65
2021/03/26 03:12:25;;;;;;;16.00;6.00;;;7.10;99.90;;;;;;5036158;28;20037;-65
2021/03/26 03:15:14;;;;;;;17.38;6.18;;;7.20;99.90;;;;;;5040254;28;20028;-64
2021/03/26 03:17:51;;;;;;;17.55;7.43;;;7.20;99.90;;;;;;5034635;28;20040;-65
2021/03/26 03:20:43;;;;;;;19.77;7.65;;;7.20;99.90;;;;;;5036437;28;20060;-65
2021/03/26 03:23:15;;;;;;;20.75;7.90;;;7.20;99.90;;;;;;5035869;28;20125;-65
2021/03/26 03:25:41;;;;;;;22.13;8.60;;;7.20;99.90;;;;;;5040363;28;20112;-65
2021/03/26 03:28:32;;;;;;;15.70;7.72;;;7.20;99.90;;;;;;5040398;28;20100;-65
2021/03/26 03:31:40;;;;;;;18.88;7.68;;;7.30;99.90;;;;;;5033838;28;20037;-64
2021/03/26 03:34:14;;;;;;;24.55;9.30;;;7.20;99.90;;;;;;5034288;28;20041;-65
2021/03/26 03:36:56;;;;;;;20.52;8.90;;;7.20;99.90;;;;;;5037143;28;20124;-65
2021/03/26 03:39:39;;;;;;;22.48;9.90;;;7.10;99.90;;;;;;5040016;28;20045;-66
2021/03/26 03:42:17;;;;;;;21.92;8.80;;;7.10;99.90;;;;;;5035035;28;20486;-65
2021/03/26 03:44:45;;;;;;;23.77;9.93;;;7.10;99.90;;;;;;5041280;28;20131;-66
2021/03/26 03:47:24;;;;;;;25.75;9.05;;;7.10;99.90;;;;;;5041681;28;20113;-65
2021/03/26 03:50:16;;;;;;;22.13;9.93;;;7.10;99.90;;;;;;5040835;28;20490;-66
2021/03/26 03:52:55;;;;;;;24.70;10.10;;;7.10;99.90;;;;;;5040695;28;20494;-66
2021/03/26 03:55:33;;;;;;;20.05;9.75;;;7.10;99.90;;;;;;5038800;28;20406;-65
2021/03/26 03:58:15;;;;;;;24.40;10.80;;;7.10;99.90;;;;;;5037607;28;20117;-66
2021/03/26 04:00:52;;;;;;;25.95;10.90;;;7.20;99.90;;;;;;5041385;28;20056;-66
2021/03/26 04:03:27;;;;;;;24.95;10.10;;;7.20;99.90;;;;;;5043276;28;20032;-64
2021/03/26 04:06:08;;;;;;;21.00;9.80;;;7.10;99.90;;;;;;5036537;28;20091;-65
2021/03/26 04:08:37;;;;;;;;;;;7.20;99.90;;;;;;5039213;28;20112;-65
2021/03/26 04:11:17;;;;;;;24.67;10.57;;;7.20;99.90;;;;;;5042752;28;20020;-65
2021/03/26 04:13:48;;;;;;;29.33;10.85;;;7.30;99.90;;;;;;5040599;28;20033;-63
2021/03/26 04:16:19;;;;;;;24.98;10.77;;;7.30;99.90;;;;;;5039723;28;20043;-66
2021/03/26 04:18:50;;;;;;;22.92;10.63;;;7.30;99.90;;;;;;5042209;28;20136;-64
2021/03/26 04:21:24;;;;;;;24.25;10.60;;;7.40;99.90;;;;;;5040739;28;20457;-66
2021/03/26 04:23:56;;;;;;;26.02;11.05;;;7.40;99.90;;;;;;5041097;28;20033;-64
2021/03/26 04:26:33;;;;;;;21.45;10.00;;;7.50;99.90;;;;;;5035902;28;20052;-64
2021/03/26 04:29:15;;;;;;;24.77;10.55;;;7.50;99.90;;;;;;5037421;28;20685;-66
2021/03/26 04:31:46;;;;;;;27.20;10.88;;;7.50;99.90;;;;;;5040587;28;20036;-66
2021/03/26 04:34:13;;;;;;;22.05;10.57;;;7.50;99.90;;;;;;5041990;28;20045;-65
2021/03/26 04:36:50;;;;;;;28.40;10.32;;;7.60;99.90;;;;;;5039232;28;20161;-65
2021/03/26 04:39:30;;;;;;;27.63;11.25;;;7.60;99.90;;;;;;5041178;28;20044;-64
2021/03/26 04:42:10;;;;;;;23.95;9.65;;;7.60;99.90;;;;;;5036451;28;20120;-65
2021/03/26 04:44:48;;;;;;;20.83;10.23;;;7.60;99.90;;;;;;5041253;28;20033;-65
2021/03/26 04:47:24;;;;;;;27.65;11.93;;;7.70;99.90;;;;;;5042175;28;20191;-64
2021/03/26 04:49:55;;;;;;;25.48;10.30;;;7.70;99.90;;;;;;5033644;28;20029;-65
2021/03/26 04:52:34;;;;;;;21.45;10.05;;;7.70;99.90;;;;;;5035526;28;20040;-64
2021/03/26 04:55:05;;;;;;;20.88;9.50;;;7.70;99.90;;;;;;5038759;28;20543;-65
2021/03/26 04:57:37;;;;;;;21.58;9.98;;;7.70;99.90;;;;;;5040097;28;20409;-65
2021/03/26 05:00:16;;;;;;;22.80;10.50;;;7.70;99.90;;;;;;5038671;28;20105;-65
2021/03/26 05:02:52;;;;;;;28.63;10.75;;;7.70;99.90;;;;;;5040208;28;20068;-65
2021/03/26 05:05:19;;;;;;;23.50;10.52;;;7.80;99.90;;;;;;5034574;28;21111;-62
2021/03/26 05:07:50;;;;;;;23.27;9.25;;;7.80;99.90;;;;;;5039268;28;20080;-66
2021/03/26 05:10:20;;;;;;;21.00;10.10;;;7.80;99.90;;;;;;5042563;28;20056;-64
2021/03/26 05:12:49;;;;;;;17.70;7.10;;;7.80;99.90;;;;;;5042113;28;20029;-64
2021/03/26 05:15:20;;;;;;;23.77;9.30;;;7.80;99.90;;;;;;5038546;28;20377;-65
2021/03/26 05:17:59;;;;;;;25.80;9.65;;;7.80;99.90;;;;;;5042204;28;20065;-64
2021/03/26 05:20:37;;;;;;;22.05;8.82;;;7.90;99.90;;;;;;5035665;28;20029;-66
2021/03/26 05:23:05;;;;;;;22.92;9.30;;;7.80;99.90;;;;;;5039669;28;20087;-69
2021/03/26 05:25:40;;;;;;;22.80;9.27;;;7.90;99.90;;;;;;5038483;28;20437;-66
2021/03/26 05:28:10;;;;;;;23.75;10.07;;;7.90;99.90;;;;;;5039887;28;20485;-65
2021/03/26 05:30:39;;;;;;;;;;;7.90;99.90;;;;;;5041063;28;20058;-65
2021/03/26 05:33:32;;;;;;;21.48;9.82;;;7.90;99.90;;;;;;5041917;28;19963;-65
2021/03/26 05:36:04;;;;;;;22.67;10.15;;;7.90;99.90;;;;;;5031930;28;20037;-66
2021/03/26 05:38:40;;;;;;;24.15;10.30;;;7.90;99.90;;;;;;5039315;28;20127;-66
2021/03/26 05:41:28;;;;;;;21.27;9.05;;;7.90;99.90;;;;;;5043037;28;20163;-69
2021/03/26 05:44:29;;;;;;;22.38;9.55;;;7.90;99.90;;;;;;5036473;28;20438;-65
2021/03/26 05:47:11;;;;;;;22.60;9.63;;;7.90;99.90;;;;;;5034540;28;20037;-64
2021/03/26 05:49:46;;;;;;;22.42;8.70;;;7.90;99.90;;;;;;5040436;28;20025;-66
2021/03/26 05:52:39;;;;;;;22.75;9.40;;;8.00;99.90;;;;;;5038456;28;20071;-69
2021/03/26 05:55:23;;;;;;;21.88;10.25;;;8.00;99.90;;;;;;5047384;28;20108;-69
2021/03/26 05:58:14;;;;;;;23.33;9.40;;;8.00;99.90;;;;;;5054827;28;20130;-65
2021/03/26 06:00:50;;;;;;;19.65;9.20;;;8.00;99.90;;;;;;5049106;28;20041;-66
2021/03/26 06:04:01;;;;;;;23.77;10.48;;;8.00;99.90;;;;;;5042566;28;20044;-65
2021/03/26 06:06:51;;;;;;;18.42;9.38;;;8.00;99.90;;;;;;5043267;28;20033;-65
2021/03/26 06:09:25;;;;;;;18.65;9.20;;;8.10;99.90;;;;;;5038460;28;20037;-65
2021/03/26 06:12:12;;;;;;;21.80;8.90;;;8.00;99.90;;;;;;5035585;28;20033;-66
2021/03/26 06:15:05;;;;;;;22.65;9.75;;;8.00;99.90;;;;;;5039982;28;20041;-64
2021/03/26 06:17:58;;;;;;;23.77;9.25;;;8.10;99.90;;;;;;5036134;28;20041;-64
2021/03/26 06:20:53;;;;;;;17.83;8.25;;;8.10;99.90;;;;;;5034350;28;20111;-66
2021/03/26 06:23:30;;;;;;;23.15;8.52;;;8.20;99.90;;;;;;5034363;28;20041;-65
2021/03/26 06:26:05;;;;;;;20.17;8.57;;;8.20;99.90;;;;;;5037175;28;20037;-65
2021/03/26 06:28:41;;;;;;;17.38;8.20;;;8.20;99.90;;;;;;5037399;28;20112;-64
2021/03/26 06:31:41;;;;;;;23.83;9.40;;;8.10;99.90;;;;;;5038831;28;20084;-65
2021/03/26 06:34:21;;;;;;;20.83;8.05;;;8.20;99.90;;;;;;5038003;28;20045;-66
2021/03/26 06:37:25;;;;;;;19.58;8.20;;;8.20;99.90;;;;;;5033929;28;20033;-66
2021/03/26 06:40:11;;;;;;;22.02;9.20;;;8.40;99.90;;;;;;5033327;28;20065;-66
2021/03/26 06:42:55;;;;;;;18.73;8.27;;;8.40;99.90;;;;;;5038066;28;20037;-65
2021/03/26 06:45:45;;;;;;;20.70;9.35;;;8.40;99.90;;;;;;5038431;28;20044;-66
2021/03/26 06:48:23;;;;;;;17.58;7.95;;;8.50;99.90;;;;;;5040356;28;20037;-66
2021/03/26 06:51:05;;;;;;;19.17;8.05;;;8.50;99.90;;;;;;5034767;28;20125;-66
2021/03/26 06:54:14;;;;;;;20.90;8.60;;;8.60;99.90;;;;;;5038456;28;20044;-64
2021/03/26 06:56:58;;;;;;;19.60;8.02;;;8.70;99.90;;;;;;5031900;28;20086;-65
2021/03/26 06:59:26;;;;;;;16.77;8.52;;;8.70;99.90;;;;;;5038147;28;20481;-65
2021/03/26 07:02:46;;;;;;;22.00;8.57;;;8.80;99.90;;;;;;5035346;28;20105;-65
2021/03/26 07:05:34;;;;;;;20.17;8.63;;;8.80;99.90;;;;;;4991331;28;20030;-66
2021/03/26 07:08:24;;;;;;;19.27;8.25;;;8.80;99.90;;;;;;5032613;28;20061;-65
2021/03/26 07:11:08;;;;;;;;;;;8.90;99.90;;;;;;5033950;28;20039;-66
2021/03/26 07:14:06;;;;;;;18.92;7.60;;;9.00;99.90;;;;;;5036851;28;19970;-66
2021/03/26 07:17:13;;;;;;;18.88;7.45;;;9.30;99.90;;;;;;5036040;28;20033;-65
2021/03/26 07:20:13;;;;;;;24.85;8.70;;;9.50;99.90;;;;;;5038514;28;20478;-66
2021/03/26 07:23:10;;;;;;;19.92;8.57;;;9.60;99.90;;;;;;5037993;28;20029;-66
2021/03/26 07:26:04;;;;;;;21.88;8.88;;;9.70;99.90;;;;;;5036890;28;20391;-63
2021/03/26 07:28:38;;;;;;;18.05;7.93;;;9.80;99.90;;;;;;5037813;28;20042;-66
2021/03/26 07:31:25;;;;;;;19.42;8.02;;;9.80;99.90;;;;;;5037244;28;20033;-65
2021/03/26 07:34:07;;;;;;;20.35;7.78;;;9.80;99.90;;;;;;5037883;28;20103;-65
2021/03/26 07:36:42;;;;;;;23.98;8.90;;;10.00;99.90;;;;;;5037917;28;20137;-64
2021/03/26 07:39:29;;;;;;;18.30;8.32;;;10.20;99.90;;;;;;5038625;28;20557;-65
2021/03/26 07:42:16;;;;;;;19.08;7.53;;;10.30;99.90;;;;;;5040484;28;20142;-66
2021/03/26 07:45:09;;;;;;;19.35;7.85;;;10.40;99.90;;;;;;5036998;28;20029;-66
2021/03/26 07:48:12;;;;;;;17.27;7.70;;;10.60;99.90;;;;;;5036163;28;20033;-66
2021/03/26 07:51:00;;;;;;;15.43;6.25;;;10.70;99.90;;;;;;5040407;28;20033;-66
2021/03/26 07:53:54;;;;;;;21.65;8.30;;;10.80;99.90;;;;;;4990951;28;20048;-67
2021/03/26 07:56:46;;;;;;;17.52;7.38;;;11.00;99.90;;;;;;5041661;28;20057;-66
2021/03/26 07:59:40;;;;;;;16.20;6.25;;;11.10;99.90;;;;;;5033848;28;20057;-65
2021/03/26 08:02:33;;;;;;;15.90;6.25;;;11.20;99.90;;;;;;5032228;28;20416;-67
2021/03/26 08:05:22;;;;;;;18.90;7.38;;;11.40;99.90;;;;;;5035192;28;20048;-65
2021/03/26 08:08:22;;;;;;;16.70;7.38;;;11.40;99.90;;;;;;5033820;28;20036;-66
2021/03/26 08:11:04;;;;;;;18.60;7.55;;;11.60;99.90;;;;;;5031603;28;20172;-66
2021/03/26 08:13:42;;;;;;;16.92;7.80;;;11.60;99.90;;;;;;5036205;28;20041;-66
2021/03/26 08:16:46;;;;;;;18.10;7.93;;;11.70;99.90;;;;;;5035999;28;20044;-64
2021/03/26 08:19:26;;;;;;;14.90;6.50;;;11.80;99.90;;;;;;4933052;29;20130;-66
2021/03/26 08:21:58;;;;;;;15.05;7.53;;;11.80;99.90;;;;;;4934122;29;20044;-66
2021/03/26 08:25:01;;;;;;;13.73;7.25;;;11.90;99.90;;;;;;4998728;28;20049;-66
2021/03/26 08:27:53;;;;;;;18.27;7.28;;;12.00;99.90;;;;;;4988978;28;20045;-66
2021/03/26 08:30:46;;;;;;;17.00;7.13;;;12.20;99.90;;;;;;5035775;28;20136;-67
2021/03/26 08:33:47;;;;;;;17.25;6.70;;;12.20;99.90;;;;;;5034482;28;20159;-66
2021/03/26 08:36:42;;;;;;;19.13;6.80;;;12.40;99.90;;;;;;5036527;28;20075;-68
2021/03/26 08:39:34;;;;;;;14.25;6.80;;;12.50;99.90;;;;;;5031717;28;20053;-66
2021/03/26 08:42:21;;;;;;;12.32;6.07;;;12.60;99.90;;;;;;5040235;28;20091;-64
2021/03/26 08:44:53;;;;;;;13.30;6.63;;;12.70;99.90;;;;;;5038455;28;20041;-66
2021/03/26 08:47:30;;;;;;;14.07;6.45;;;12.70;99.90;;;;;;5042955;28;20037;-66
2021/03/26 08:50:24;;;;;;;16.50;6.82;;;12.80;99.90;;;;;;5045554;28;20056;-66
2021/03/26 08:53:12;;;;;;;17.80;6.53;;;12.80;99.90;;;;;;5004030;28;20040;-64
2021/03/26 08:55:44;;;;;;;16.90;6.78;;;12.90;99.90;;;;;;5043992;28;20389;-65
2021/03/26 08:58:28;;;;;;;16.77;6.43;;;13.00;99.90;;;;;;5035925;28;20038;-67
2021/03/26 09:01:25;;;;;;;13.88;5.78;;;13.00;99.90;;;;;;5037875;28;20090;-66
2021/03/26 09:04:18;;;;;;;17.27;7.20;;;13.10;99.90;;;;;;5000338;28;20119;-67
2021/03/26 09:07:01;;;;;;;18.30;7.00;;;13.20;99.90;;;;;;5039429;28;20486;-67
2021/03/26 09:09:54;;;;;;;16.60;6.45;;;13.30;99.90;;;;;;5042239;28;20489;-66
2021/03/26 09:13:01;;;;;;;11.15;5.65;;;13.40;99.90;;;;;;5035854;28;20117;-67
2021/03/26 09:16:02;;;;;;;13.05;5.32;;;13.50;99.90;;;;;;5041949;28;20033;-67
2021/03/26 09:18:36;;;;;;;12.65;4.95;;;13.60;99.90;;;;;;5042560;28;20028;-66
2021/03/26 09:21:26;;;;;;;12.20;4.93;;;13.60;99.90;;;;;;5038202;28;20030;-66
2021/03/26 09:24:18;;;;;;;13.95;5.47;;;13.80;99.90;;;;;;5038611;28;20533;-66
2021/03/26 09:26:58;;;;;;;14.60;5.00;;;14.00;99.90;;;;;;5038031;28;20033;-67
2021/03/26 09:29:35;;;;;;;14.33;4.60;;;14.10;99.90;;;;;;5038651;28;20026;-67
2021/03/26 09:32:20;;;;;;;10.15;3.88;;;14.10;99.90;;;;;;5038034;28;20695;-66
2021/03/26 09:35:11;;;;;;;11.98;4.68;;;14.20;99.90;;;;;;5036793;28;20029;-66
2021/03/26 09:38:09;;;;;;;9.30;4.35;;;14.10;99.90;;;;;;5036710;28;20120;-68
2021/03/26 09:41:11;;;;;;;11.82;3.88;;;14.20;99.90;;;;;;5015676;28;20116;-67
2021/03/26 09:44:05;;;;;;;9.32;4.15;;;14.30;99.90;;;;;;5046138;28;20040;-69
2021/03/26 09:46:44;;;;;;;8.88;3.75;;;14.40;99.90;;;;;;5057308;28;20025;-68
2021/03/26 09:49:31;;;;;;;10.35;4.03;;;14.40;99.90;;;;;;5051718;28;20067;-67
2021/03/26 09:52:06;;;;;;;12.82;4.32;;;14.30;99.90;;;;;;5041297;28;20779;-67
2021/03/26 09:54:38;;;;;;;10.32;3.97;;;14.30;99.90;;;;;;5034570;28;20038;-68
2021/03/26 09:57:27;;;;;;;9.43;3.72;;;14.40;99.90;;;;;;5033147;28;20493;-67
2021/03/26 10:00:11;;;;;;;9.25;3.05;;;14.50;99.90;;;;;;5039426;28;20656;-67
2021/03/26 10:02:38;;;;;;;9.25;3.92;;;14.60;99.90;;;;;;5036019;28;20041;-67
2021/03/26 10:05:17;;;;;;;10.27;3.20;;;14.60;99.90;;;;;;5042607;28;20394;-69
2021/03/26 10:07:51;;;;;;;10.82;2.90;;;14.60;99.90;;;;;;5036660;28;20510;-68
2021/03/26 10:12:57;;;;;;;6.25;2.90;;;14.70;99.40;;;;;;5057631;28;20057;-70
2021/03/26 10:15:31;;;;;;;6.57;3.05;;;14.90;99.00;;;;;;5044489;28;20085;-68
2021/03/26 10:18:19;;;;;;;9.63;2.80;;;15.10;99.20;;;;;;5049377;28;20036;-68
2021/03/26 10:20:51;;;;;;;5.22;2.53;;;15.30;97.40;;;;;;5032045;28;20099;-70
2021/03/26 10:23:26;;;;;;;8.38;2.97;;;15.20;96.00;;;;;;5038544;28;20037;-68
2021/03/26 10:26:17;;;;;;;8.55;2.55;;;15.20;96.20;;;;;;5040067;28;20494;-68
2021/03/26 10:28:43;;;;;;;7.47;2.40;;;15.20;97.30;;;;;;5037561;28;20045;-68
2021/03/26 10:31:12;;;;;;;6.10;2.35;;;15.20;94.90;;;;;;5040603;28;20025;-67
2021/03/26 10:33:51;;;;;;;6.82;1.90;;;15.10;94.60;;;;;;5038474;28;20043;-67
2021/03/26 10:36:54;;;;;;;11.05;2.25;;;15.10;94.60;;;;;;5038798;28;20037;-67
2021/03/26 10:39:33;;;;;;;5.63;2.30;;;15.10;94.50;;;;;;5039072;28;20045;-67
2021/03/26 10:42:18;;;;;;;6.30;1.48;;;14.90;93.30;;;;;;5031330;28;20037;-67
2021/03/26 10:45:14;;;;;;;5.22;1.88;;;14.90;92.30;;;;;;5039683;28;20425;-67
2021/03/26 10:47:39;;;;;;;7.38;2.15;;;14.80;91.80;;;;;;5035632;28;20626;-67
2021/03/26 10:50:10;;;;;;;8.57;1.75;;;14.80;92.90;;;;;;5036918;28;20036;-67
2021/03/26 10:52:43;;;;;;;3.03;1.45;;;14.80;90.50;;;;;;5035910;28;20041;-67
2021/03/26 10:55:41;;;;;;;4.40;1.65;;;14.70;90.70;;;;;;5028575;28;20029;-68
2021/03/26 10:58:20;;;;;;;4.82;1.23;;;14.70;90.60;;;;;;5028254;28;20112;-67
2021/03/26 11:01:10;;;;;;;11.55;2.65;;;14.80;90.80;;;;;;5027945;28;20486;-67
2021/03/26 11:03:44;;;;;;;10.77;1.55;;;14.80;90.60;;;;;;5029407;28;20034;-67
2021/03/26 11:06:19;;;;;;;8.43;2.63;;;15.00;90.20;;;;;;5030613;28;20131;-67
2021/03/26 11:08:48;;;;;;;7.18;2.25;;;15.20;90.60;;;;;;5028954;28;20103;-67
2021/03/26 11:11:20;;;;;;;6.57;1.97;;;15.30;88.30;;;;;;5030864;28;20041;-67
2021/03/26 11:14:22;;;;;;;7.80;2.30;;;15.30;87.00;;;;;;5031575;28;20280;-67
2021/03/26 11:17:10;;;;;;;5.93;1.75;;;15.40;87.20;;;;;;5030060;28;20049;-67
2021/03/26 11:20:02;;;;;;;6.45;1.85;;;15.50;86.10;;;;;;5030816;28;20033;-67
2021/03/26 11:22:29;;;;;;;5.55;2.13;;;15.30;87.40;;;;;;5000386;28;20041;-67
2021/03/26 11:25:03;;;;;;;9.05;2.35;;;15.10;87.70;;;;;;5032223;28;20029;-68
2021/03/26 11:27:43;;;;;;;5.32;1.70;;;15.00;89.60;;;;;;5025852;28;20076;-67
2021/03/26 11:30:18;;;;;;;5.35;2.08;;;15.00;91.40;;;;;;5033062;28;20037;-67
2021/03/26 11:32:48;;;;;;;5.13;1.83;;;15.00;91.00;;;;;;5031132;28;20056;-67
2021/03/26 11:35:18;;;;;;;5.68;1.90;;;15.10;91.20;;;;;;5033764;28;20033;-67
2021/03/26 11:38:01;;;;;;;6.50;1.90;;;15.20;91.00;;;;;;5031659;28;20049;-67
2021/03/26 11:40:33;;;;;;;6.25;1.60;;;15.40;87.30;;;;;;5029946;28;20443;-67
2021/03/26 11:43:22;;;;;;;4.80;1.23;;;15.10;88.50;;;;;;5033226;28;20040;-67
2021/03/26 11:45:54;;;;;;;3.03;1.38;;;15.10;85.90;;;;;;5031526;28;20438;-67
2021/03/26 11:48:37;;;;;;;5.72;0.93;;;15.10;85.20;;;;;;5033523;28;20099;-68
2021/03/26 11:51:13;;;;;;;8.88;1.55;;;15.10;85.80;;;;;;5034911;28;20042;-67
2021/03/26 11:53:45;;;;;;;3.72;1.20;;;15.10;80.70;;;;;;5032381;28;20087;-67
2021/03/26 11:56:20;;;;;;;6.45;1.55;;;15.10;81.30;;;;;;5037036;28;20120;-67
2021/03/26 11:58:55;;;;;;;10.10;1.63;;;14.90;79.80;;;;;;5036563;28;20128;-67
2021/03/26 12:01:24;;;;;;;3.13;1.00;;;14.90;79.30;;;;;;5034120;28;20752;-67
2021/03/26 12:04:01;;;;;;;7.87;1.83;;;14.90;82.70;;;;;;5036407;28;20055;-67
2021/03/26 12:06:45;;;;;;;7.07;1.30;;;15.00;84.20;;;;;;5034516;28;20040;-67
2021/03/26 12:09:26;;;;;;;4.55;1.30;;;15.00;82.50;;;;;;5038189;28;20073;-67
2021/03/26 12:12:15;;;;;;;7.78;1.58;;;15.00;82.70;;;;;;5038724;28;20454;-67
2021/03/26 12:15:14;;;;;;;9.15;1.27;;;15.00;83.20;;;;;;5038685;28;20041;-67
2021/03/26 12:18:01;;;;;;;4.35;1.55;;;15.00;81.40;;;;;;5036186;28;20033;-67
2021/03/26 12:20:36;;;;;;;6.50;1.10;;;15.00;81.10;;;;;;5043658;28;20048;-67
2021/03/26 12:23:19;;;;;;;8.10;1.92;;;14.80;79.90;;;;;;5037626;28;20556;-67
2021/03/26 12:25:53;;;;;;;5.93;1.48;;;14.80;82.70;;;;;;5040865;28;20097;-67
2021/03/26 12:28:28;;;;;;;6.75;1.25;;;14.80;82.60;;;;;;5030888;28;20029;-67
2021/03/26 12:31:03;;;;;;;8.93;1.75;;;14.80;85.10;;;;;;5033275;28;20048;-67
2021/03/26 12:33:44;;;;;;;4.30;1.25;;;14.90;83.70;;;;;;5034812;28;20192;-67
2021/03/26 12:36:38;;;;;;;7.35;2.35;;;15.20;81.50;;;;;;5034270;28;20041;-67
2021/03/26 12:39:10;;;;;;;10.20;1.58;;;15.30;76.60;;;;;;5032500;28;20111;-67
2021/03/26 12:41:53;;;;;;;6.72;1.40;;;15.30;77.10;;;;;;5038272;28;20454;-68
2021/03/26 12:44:30;;;;;;;5.10;1.50;;;15.30;74.70;;;;;;5039008;28;20037;-67
2021/03/26 12:47:10;;;;;;;2.83;1.15;;;15.30;73.10;;;;;;5034471;28;20044;-68
2021/03/26 12:49:40;;;;;;;5.03;1.33;;;15.20;71.90;;;;;;5034243;28;20505;-67
2021/03/26 12:52:15;;;;;;;2.85;1.10;;;15.00;73.40;;;;;;5039010;28;20029;-67
2021/03/26 12:54:53;;;;;;;7.00;1.40;;;15.00;72.80;;;;;;5037213;28;20065;-67
2021/03/26 12:57:23;;;;;;;5.97;1.10;;;15.00;73.00;;;;;;5033877;28;20034;-67
2021/03/26 12:59:56;;;;;;;;;;;14.90;73.90;;;;;;5038781;28;20045;-67
2021/03/26 13:02:42;;;;;;;3.88;0.95;;;14.90;74.60;;;;;;5035817;28;20380;-67
2021/03/26 13:05:20;;;;;;;7.15;1.23;;;14.90;73.50;;;;;;5030998;28;20034;-67
2021/03/26 13:07:46;;;;;;;3.92;1.02;;;15.00;76.20;;;;;;5033340;28;20072;-67
2021/03/26 13:10:49;;;;;;;6.32;1.27;;;15.10;72.50;;;;;;5034867;28;20042;-67
2021/03/26 13:13:30;;;;;;;3.63;1.30;;;15.00;75.50;;;;;;5031031;28;20044;-67
2021/03/26 13:16:43;;;;;;;5.20;1.25;;;15.10;75.80;;;;;;5031996;28;20037;-67
2021/03/26 13:19:25;;;;;;;4.43;1.30;;;15.00;76.90;;;;;;4982837;28;20050;-67
2021/03/26 13:22:04;;;;;;;9.88;1.50;;;15.00;76.00;;;;;;5029049;28;20033;-67
2021/03/26 13:24:51;;;;;;;2.88;1.17;;;15.00;77.60;;;;;;5036628;28;20545;-67
2021/03/26 13:27:20;;;;;;;7.82;1.30;;;14.90;80.40;;;;;;5053921;28;20033;-70
2021/03/26 13:30:11;;;;;;;3.45;1.30;;;14.90;80.20;;;;;;5053264;28;20029;-68
2021/03/26 13:33:00;;;;;;;4.43;1.27;;;14.90;79.30;;;;;;5046801;28;20045;-68
2021/03/26 13:35:32;;;;;;;6.40;1.00;;;14.90;79.80;;;;;;5028629;28;20071;-67
2021/03/26 13:38:12;;;;;;;6.13;1.02;;;14.80;81.00;;;;;;5038191;28;20127;-67
2021/03/26 13:40:44;;;;;;;2.25;1.00;;;14.90;81.80;;;;;;5032192;28;20090;-67
2021/03/26 13:43:18;;;;;;;4.38;1.33;;;14.90;79.00;;;;;;5034510;28;20110;-67
2021/03/26 13:45:49;;;;;;;3.53;1.83;;;14.90;79.50;;;;;;5031802;28;20061;-67
2021/03/26 13:48:16;;;;;;;6.45;1.45;;;14.90;80.00;;;;;;5028619;28;20056;-68